Time;durP1;ratioP1;P1;durP2;ratioP2;P2;SDS_P1;SDS_P2;PMS_P1;PMS_P2;Temp;Humidity;BMP_temperature;BMP_pressure;BME280_temperature;BME280_humidity;BME280_pressure;Samples;Min_cycle;Max_cycle;Signal;HPM_P1;HPM_P2
2023/03/06 00:01:54;;;;;;;70.22;49.08;;;;;;;2.49;65.19;98060.25;5090419;28;20073;-46
2023/03/06 00:04:20;;;;;;;64.55;36.45;;;;;;;2.48;65.56;98061.25;5091795;28;20024;-44
2023/03/06 00:07:02;;;;;;;47.28;26.13;;;;;;;2.52;65.18;98059.94;5091635;28;20085;-45
2023/03/06 00:09:32;;;;;;;71.07;47.10;;;;;;;2.66;65.53;98063.66;5091942;28;20104;-46
2023/03/06 00:11:58;;;;;;;338.30;304.60;;;;;;;2.76;65.73;98067.66;5091774;28;20103;-45
2023/03/06 00:14:26;;;;;;;167.82;149.63;;;;;;;2.91;64.72;98066.97;5091697;28;20024;-45
2023/03/06 00:16:57;;;;;;;385.10;348.23;;;;;;;2.96;64.62;98065.50;5091580;28;20096;-45
2023/03/06 00:19:27;;;;;;;77.38;53.17;;;;;;;2.91;64.57;98070.38;5091610;28;20024;-45
2023/03/06 00:21:55;;;;;;;115.30;99.57;;;;;;;2.88;64.02;98068.13;5090216;28;20016;-45
2023/03/06 00:24:27;;;;;;;54.28;37.75;;;;;;;2.92;63.95;98069.41;5091486;28;20081;-44
2023/03/06 00:26:54;;;;;;;60.78;35.72;;;;;;;3.08;64.26;98070.31;5090041;28;20038;-45
2023/03/06 00:29:20;;;;;;;59.28;36.05;;;;;;;3.02;63.42;98074.41;5089913;28;20089;-45
2023/03/06 00:31:47;;;;;;;68.13;38.88;;;;;;;2.77;64.58;98066.69;5093453;28;20031;-45
2023/03/06 00:34:20;;;;;;;61.90;35.88;;;;;;;2.62;65.45;98073.53;5111737;28;20027;-45
2023/03/06 00:36:48;;;;;;;59.50;35.08;;;;;;;2.54;65.14;98073.53;5096799;28;20047;-45
2023/03/06 00:39:21;;;;;;;68.45;42.70;;;;;;;2.41;65.17;98071.44;5097321;28;20098;-46
2023/03/06 00:42:04;;;;;;;54.72;36.58;;;;;;;2.30;65.82;98064.03;5116022;28;20019;-45
2023/03/06 00:44:30;;;;;;;59.17;30.63;;;;;;;2.27;66.14;98059.16;5115525;28;20111;-45
2023/03/06 00:47:04;;;;;;;51.33;27.50;;;;;;;2.22;66.23;98066.63;5115380;28;20378;-45
2023/03/06 00:49:30;;;;;;;104.22;93.45;;;;;;;2.27;66.37;98057.38;5097107;28;20027;-45
2023/03/06 00:51:58;;;;;;;92.63;78.20;;;;;;;2.21;66.59;98055.44;5097037;28;20027;-45
2023/03/06 00:54:30;;;;;;;72.63;44.40;;;;;;;2.29;66.28;98062.38;5115487;28;20023;-45
2023/03/06 00:56:57;;;;;;;79.15;66.85;;;;;;;2.14;65.81;98052.69;5096977;28;20447;-45
2023/03/06 00:59:26;;;;;;;71.47;51.03;;;;;;;1.98;66.79;98060.44;5097041;28;20055;-45
2023/03/06 01:01:54;;;;;;;97.32;81.45;;;;;;;1.87;67.24;98056.41;5115215;28;20099;-45
2023/03/06 01:04:21;;;;;;;65.30;45.65;;;;;;;1.80;67.48;98048.47;5115239;28;20024;-45
2023/03/06 01:06:48;;;;;;;57.42;36.75;;;;;;;1.98;68.47;98045.72;5115029;28;20108;-45
2023/03/06 01:09:15;;;;;;;107.60;96.32;;;;;;;2.25;67.17;98048.94;5096813;28;20030;-45
2023/03/06 01:11:42;;;;;;;116.50;104.47;;;;;;;2.44;66.82;98042.63;5096681;28;20509;-45
2023/03/06 01:14:09;;;;;;;105.43;94.57;;;;;;;2.31;66.80;98031.97;5096721;28;20023;-44
2023/03/06 01:16:37;;;;;;;79.70;62.47;;;;;;;2.07;66.24;98037.97;5096902;28;20118;-45
2023/03/06 01:19:03;;;;;;;135.13;121.68;;;;;;;1.86;67.90;98028.91;5114928;28;20017;-44
2023/03/06 01:21:30;;;;;;;179.98;162.60;;;;;;;1.81;67.80;98028.56;5096545;28;20028;-44
2023/03/06 01:23:59;;;;;;;107.15;96.15;;;;;;;1.76;67.90;98025.66;5114853;28;20050;-45
2023/03/06 01:26:26;;;;;;;66.32;47.22;;;;;;;1.75;67.93;98024.03;5114946;28;20455;-45
2023/03/06 01:28:56;;;;;;;137.20;123.13;;;;;;;1.75;68.39;98019.69;5114819;28;20367;-44
2023/03/06 01:31:24;;;;;;;137.88;123.97;;;;;;;1.75;68.05;98019.69;5092771;28;20072;-44
2023/03/06 01:33:51;;;;;;;127.28;113.03;;;;;;;1.74;68.71;98006.91;5092889;28;20089;-44
2023/03/06 01:36:19;;;;;;;80.03;61.80;;;;;;;1.69;68.49;98010.00;5094211;28;20114;-44
2023/03/06 01:38:45;;;;;;;66.00;48.67;;;;;;;1.72;68.46;98001.91;5094206;28;20148;-45
2023/03/06 01:41:16;;;;;;;83.63;72.47;;;;;;;1.58;68.97;98002.53;5094152;28;20095;-45
2023/03/06 01:43:45;;;;;;;71.85;43.40;;;;;;;1.70;69.56;98000.44;5094121;28;20032;-44
2023/03/06 01:46:33;;;;;;;45.55;27.77;;;;;;;2.03;68.76;97995.25;5093772;28;20016;-44
2023/03/06 01:49:19;;;;;;;87.85;70.40;;;;;;;2.26;67.22;97992.84;5094231;28;20390;-46
2023/03/06 01:52:13;;;;;;;;;;;;;;;2.37;66.71;97995.06;5094335;28;20028;-45
2023/03/06 01:55:18;;;;;;;40.75;23.30;;;;;;;2.34;64.68;97990.22;5078826;28;19939;-46
2023/03/06 01:58:24;;;;;;;52.13;29.80;;;;;;;2.30;65.40;97991.53;5092478;28;20038;-46
2023/03/06 02:01:00;;;;;;;87.55;77.05;;;;;;;2.08;65.33;98000.78;5093815;28;20024;-45
2023/03/06 02:03:40;;;;;;;60.72;40.80;;;;;;;1.76;66.18;97992.84;5092404;28;20032;-46
2023/03/06 02:06:20;;;;;;;47.58;27.70;;;;;;;1.67;67.43;98001.59;5092218;28;20520;-46
2023/03/06 02:09:05;;;;;;;62.45;37.28;;;;;;;1.70;67.27;97998.66;5093610;28;20063;-45
2023/03/06 02:11:50;;;;;;;120.63;107.78;;;;;;;1.67;68.19;97993.81;5092170;28;20059;-45
2023/03/06 02:14:38;;;;;;;119.13;107.03;;;;;;;1.71;69.09;97991.69;5092385;28;20032;-46
2023/03/06 02:17:23;;;;;;;65.47;43.42;;;;;;;1.98;69.35;97988.00;5093389;28;20016;-46
2023/03/06 02:20:10;;;;;;;507.20;459.00;;;;;;;2.25;67.96;97981.66;5091980;28;20032;-45
2023/03/06 02:23:22;;;;;;;432.45;389.10;;;;;;;2.19;66.77;97979.72;5093259;28;20028;-46
2023/03/06 02:26:03;;;;;;;1226.75;858.55;;;;;;;1.89;67.22;97978.59;5091890;28;20020;-46
2023/03/06 02:31:35;;;;;;;142.07;126.47;;;;;;;1.56;67.47;97979.41;5108970;28;20127;-45
2023/03/06 02:34:32;;;;;;;;;;;;;;;1.40;67.71;97975.03;5113921;28;20538;-45
2023/03/06 02:37:10;;;;;;;102.20;80.75;;;;;;;1.45;67.94;97979.72;5113463;28;19912;-45
2023/03/06 02:39:45;;;;;;;132.48;112.18;;;;;;;1.52;67.99;97969.56;5095045;28;20066;-45
2023/03/06 02:42:28;;;;;;;162.05;139.32;;;;;;;1.63;67.38;97971.84;5113346;28;20031;-46
2023/03/06 02:45:14;;;;;;;122.20;109.20;;;;;;;1.84;67.15;97967.97;5094939;28;20393;-45
2023/03/06 02:47:54;;;;;;;91.20;70.53;;;;;;;1.87;66.75;97965.03;5091604;28;20374;-46
2023/03/06 02:50:30;;;;;;;43.63;27.98;;;;;;;1.84;65.94;97965.38;5094869;28;20024;-46
2023/03/06 02:53:08;;;;;;;60.00;42.20;;;;;;;1.72;65.35;97957.91;5094833;28;20055;-45
2023/03/06 02:55:45;;;;;;;72.70;56.03;;;;;;;1.69;66.22;97952.25;5094699;28;20490;-46
2023/03/06 02:58:29;;;;;;;81.82;65.38;;;;;;;1.68;66.96;97956.63;5113047;28;20027;-45
2023/03/06 03:01:05;;;;;;;123.05;110.13;;;;;;;1.57;67.17;97960.34;5094656;28;20102;-46
2023/03/06 03:03:33;;;;;;;73.50;65.55;;;;;;;1.43;67.40;97965.34;5094674;28;20149;-45
2023/03/06 03:06:07;;;;;;;68.28;58.63;;;;;;;1.27;67.47;97968.69;5112738;28;20047;-45
2023/03/06 03:08:43;;;;;;;82.63;67.72;;;;;;;1.09;68.10;97955.91;5112866;28;20019;-46
2023/03/06 03:11:14;;;;;;;108.15;96.30;;;;;;;0.96;69.50;97961.53;5112802;28;20073;-46
2023/03/06 03:13:48;;;;;;;115.75;96.35;;;;;;;1.06;68.15;97961.38;5112757;28;20023;-45
2023/03/06 03:16:27;;;;;;;55.20;34.80;;;;;;;1.19;67.80;97964.34;5112758;28;20517;-46
2023/03/06 03:19:07;;;;;;;105.68;94.38;;;;;;;1.27;69.05;97959.19;5094600;28;20472;-46
2023/03/06 03:21:34;;;;;;;72.55;46.75;;;;;;;1.40;69.29;97953.53;5112629;28;20562;-45
2023/03/06 03:24:17;;;;;;;49.08;28.13;;;;;;;1.27;69.25;97953.19;5094399;28;20038;-45
2023/03/06 03:26:47;;;;;;;49.47;29.13;;;;;;;1.23;69.07;97951.88;5094178;28;20031;-46
2023/03/06 03:29:20;;;;;;;48.58;28.95;;;;;;;1.28;69.30;97955.63;5112395;28;20050;-45
2023/03/06 03:31:49;;;;;;;48.40;25.33;;;;;;;1.25;69.04;97963.72;5094119;28;20036;-46
2023/03/06 03:34:24;;;;;;;56.42;37.58;;;;;;;1.29;69.06;97956.41;5094166;28;20036;-45
2023/03/06 03:36:55;;;;;;;62.05;46.92;;;;;;;1.45;68.13;97961.63;5112324;28;20173;-45
2023/03/06 03:39:25;;;;;;;41.15;23.45;;;;;;;1.56;67.21;97956.13;5112416;28;20646;-45
2023/03/06 03:41:54;;;;;;;37.75;20.25;;;;;;;1.65;66.62;97948.38;5112295;28;20095;-44
2023/03/06 03:44:34;;;;;;;107.53;96.03;;;;;;;1.54;66.91;97942.56;5112331;28;20389;-46
2023/03/06 03:47:01;;;;;;;70.07;50.13;;;;;;;1.56;66.92;97950.97;5093826;28;20466;-45
2023/03/06 03:49:29;;;;;;;49.75;31.48;;;;;;;1.56;66.39;97947.56;5077225;28;20047;-46
2023/03/06 03:51:59;;;;;;;102.53;85.50;;;;;;;1.57;66.21;97944.84;5093902;28;20090;-46
2023/03/06 03:54:32;;;;;;;106.32;95.10;;;;;;;1.68;66.46;97941.09;5112221;28;20072;-45
2023/03/06 03:57:09;;;;;;;115.47;103.50;;;;;;;1.68;66.08;97935.13;5093766;28;20578;-46
2023/03/06 03:59:44;;;;;;;319.83;290.35;;;;;;;1.55;67.37;97945.94;5093892;28;20062;-46
2023/03/06 04:02:10;;;;;;;189.35;170.00;;;;;;;1.42;67.44;97943.84;5112109;28;20106;-45
2023/03/06 04:04:37;;;;;;;151.70;135.88;;;;;;;1.17;67.45;97946.41;5112077;28;20035;-45
2023/03/06 04:07:20;;;;;;;128.88;114.53;;;;;;;0.93;68.34;97951.50;5093682;28;20034;-46
2023/03/06 04:10:09;;;;;;;185.32;167.02;;;;;;;0.96;69.56;97941.66;5112216;28;20020;-46
2023/03/06 04:12:49;;;;;;;313.05;284.23;;;;;;;1.09;70.00;97945.59;5097863;28;20539;-46
2023/03/06 04:15:27;;;;;;;264.58;238.50;;;;;;;1.07;68.93;97952.69;5097796;28;20065;-46
2023/03/06 04:18:03;;;;;;;230.20;206.93;;;;;;;1.02;69.06;97945.38;5080938;28;20082;-46
2023/03/06 04:20:45;;;;;;;113.63;95.22;;;;;;;1.09;68.61;97943.00;5115979;28;20433;-46
2023/03/06 04:23:26;;;;;;;221.55;198.48;;;;;;;1.21;67.90;97941.72;5097636;28;20122;-46
2023/03/06 04:26:03;;;;;;;233.90;210.30;;;;;;;1.28;67.97;97934.13;5115689;28;20392;-46
2023/03/06 04:28:29;;;;;;;173.05;155.25;;;;;;;1.36;67.39;97937.53;5080755;28;20404;-45
2023/03/06 04:30:57;;;;;;;214.20;193.32;;;;;;;1.33;67.30;97948.22;5094080;28;20055;-45
2023/03/06 04:33:24;;;;;;;342.05;308.52;;;;;;;1.15;67.30;97934.63;5094110;28;20050;-45
2023/03/06 04:35:52;;;;;;;282.85;255.43;;;;;;;1.01;68.17;97938.63;5095389;28;20031;-45
2023/03/06 04:38:19;;;;;;;324.40;291.70;;;;;;;1.09;69.11;97943.00;5094027;28;20110;-45
2023/03/06 04:40:48;;;;;;;281.13;253.60;;;;;;;1.22;68.87;97938.16;5095312;28;20026;-45
2023/03/06 04:43:15;;;;;;;231.18;206.38;;;;;;;1.28;68.33;97937.53;5095293;28;20435;-45
2023/03/06 04:45:42;;;;;;;273.83;246.77;;;;;;;1.23;68.28;97926.03;5094080;28;20032;-45
2023/03/06 04:48:12;;;;;;;397.13;359.17;;;;;;;1.17;68.54;97933.47;5095165;28;20448;-44
2023/03/06 04:50:39;;;;;;;237.82;214.85;;;;;;;1.11;68.59;97920.41;5093876;28;20063;-45
2023/03/06 04:53:07;;;;;;;276.02;250.43;;;;;;;0.95;69.33;97928.91;5093767;28;20028;-44
2023/03/06 04:55:34;;;;;;;422.40;383.52;;;;;;;0.93;69.95;97928.28;5094931;28;20047;-45
2023/03/06 04:58:01;;;;;;;453.90;410.27;;;;;;;1.04;69.50;97919.41;5094991;28;20392;-45
2023/03/06 05:00:30;;;;;;;306.27;276.52;;;;;;;0.97;69.64;97916.66;5093669;28;20513;-45
2023/03/06 05:02:58;;;;;;;250.80;226.73;;;;;;;0.99;69.95;97914.72;5094892;28;20016;-45
2023/03/06 05:05:27;;;;;;;200.68;180.35;;;;;;;0.94;69.10;97917.75;5094886;28;20035;-45
2023/03/06 05:07:54;;;;;;;334.92;301.38;;;;;;;0.86;69.60;97920.31;5094778;28;20024;-44
2023/03/06 05:10:22;;;;;;;267.65;241.90;;;;;;;0.78;69.27;97915.94;5094738;28;20067;-44
2023/03/06 05:12:49;;;;;;;317.98;285.40;;;;;;;0.72;69.62;97929.47;5094683;28;20085;-45
2023/03/06 05:15:16;;;;;;;412.95;370.70;;;;;;;0.52;69.64;97930.69;5093356;28;20028;-45
2023/03/06 05:17:43;;;;;;;105.22;91.10;;;;;;;0.44;70.11;97941.78;5094640;28;20498;-44
2023/03/06 05:20:11;;;;;;;78.70;57.33;;;;;;;0.29;70.42;97941.56;5094543;28;20074;-45
2023/03/06 05:22:38;;;;;;;94.13;82.72;;;;;;;0.30;70.12;97943.19;5093238;28;20501;-44
2023/03/06 05:25:06;;;;;;;223.48;201.98;;;;;;;0.53;70.40;97947.81;5094410;28;20020;-44
2023/03/06 05:27:33;;;;;;;204.65;183.82;;;;;;;0.78;70.06;97953.88;5093051;28;20555;-45
2023/03/06 05:30:00;;;;;;;141.43;101.15;;;;;;;0.98;69.65;97941.50;5092854;28;20036;-45
2023/03/06 05:32:28;;;;;;;136.85;106.32;;;;;;;1.18;68.61;97942.84;5094306;28;20030;-44
2023/03/06 05:35:03;;;;;;;50.65;33.17;;;;;;;1.13;67.83;97952.06;5094361;28;20028;-44
2023/03/06 05:37:37;;;;;;;221.88;198.70;;;;;;;1.08;67.63;97943.97;5094267;28;20051;-45
2023/03/06 05:40:15;;;;;;;120.97;106.65;;;;;;;1.03;67.49;97944.44;5094161;28;20112;-46
2023/03/06 05:42:49;;;;;;;203.25;180.38;;;;;;;1.04;68.41;97942.66;5094008;28;20107;-45
2023/03/06 05:45:17;;;;;;;262.25;235.52;;;;;;;0.99;67.77;97945.72;5094125;28;20046;-45
2023/03/06 05:47:45;;;;;;;295.60;265.38;;;;;;;0.98;68.25;97942.31;5093916;28;20089;-45
2023/03/06 05:50:13;;;;;;;283.48;255.90;;;;;;;1.00;68.79;97947.31;5093886;28;20452;-44
2023/03/06 05:52:41;;;;;;;225.85;202.30;;;;;;;0.90;68.38;97946.66;5093948;28;20060;-44
2023/03/06 05:55:10;;;;;;;316.02;283.08;;;;;;;0.84;69.32;97936.94;5093832;28;20028;-45
2023/03/06 05:57:37;;;;;;;162.00;144.25;;;;;;;0.94;68.70;97950.53;5093886;28;20031;-44
2023/03/06 06:00:05;;;;;;;189.18;168.30;;;;;;;1.02;67.86;97947.16;5092767;28;20024;-45
2023/03/06 06:02:32;;;;;;;174.52;149.20;;;;;;;1.11;67.71;97954.78;5093765;28;20042;-45
2023/03/06 06:05:01;;;;;;;207.68;186.27;;;;;;;1.12;67.91;97950.41;5092382;28;20047;-45
2023/03/06 06:07:28;;;;;;;224.40;200.10;;;;;;;1.07;67.39;97953.50;5093568;28;20028;-44
2023/03/06 06:09:54;;;;;;;121.38;105.05;;;;;;;1.15;67.47;97955.28;5093611;28;20032;-45
2023/03/06 06:12:22;;;;;;;130.60;109.07;;;;;;;1.34;67.51;97954.97;5093538;28;20084;-45
2023/03/06 06:14:51;;;;;;;167.15;149.63;;;;;;;1.43;66.64;97965.34;5093444;28;20405;-45
2023/03/06 06:17:19;;;;;;;108.95;77.10;;;;;;;1.45;67.13;97960.81;5093489;28;20107;-44
2023/03/06 06:19:46;;;;;;;190.60;169.10;;;;;;;1.52;66.42;97970.34;5092095;28;20067;-45
2023/03/06 06:22:13;;;;;;;195.23;173.82;;;;;;;1.38;66.00;97971.78;5093386;28;20047;-45
2023/03/06 06:24:41;;;;;;;183.90;164.43;;;;;;;1.22;66.40;97971.75;5091996;28;20020;-45
2023/03/06 06:27:09;;;;;;;188.52;169.30;;;;;;;1.21;66.92;97970.16;5093163;28;20428;-44
2023/03/06 06:29:36;;;;;;;154.30;137.00;;;;;;;1.53;67.19;97978.91;5094648;28;20051;-45
2023/03/06 06:32:03;;;;;;;392.98;351.38;;;;;;;1.94;66.77;97990.09;5113492;28;20557;-45
2023/03/06 06:34:30;;;;;;;218.95;196.70;;;;;;;2.28;65.28;97989.09;5094834;28;20115;-45
2023/03/06 06:36:57;;;;;;;228.40;203.27;;;;;;;2.53;64.71;97986.44;5113297;28;20024;-45
2023/03/06 06:39:24;;;;;;;278.85;250.02;;;;;;;2.78;64.07;97993.16;5113352;28;20278;-45
2023/03/06 06:41:51;;;;;;;171.43;143.27;;;;;;;3.26;63.30;97997.47;5113336;28;20030;-44
2023/03/06 06:44:19;;;;;;;201.55;180.10;;;;;;;3.63;62.08;97991.59;5113497;28;20027;-45
2023/03/06 06:46:46;;;;;;;117.03;64.78;;;;;;;3.64;60.81;97995.78;5113170;28;20024;-44
2023/03/06 06:49:13;;;;;;;172.18;130.85;;;;;;;3.58;60.16;97993.88;5113207;28;20027;-45
2023/03/06 06:51:41;;;;;;;624.30;535.80;;;;;;;3.53;59.99;97994.41;5094853;28;20027;-45
2023/03/06 06:54:09;;;;;;;252.25;216.75;;;;;;;3.42;60.06;97988.81;5094850;28;20032;-45
2023/03/06 06:56:36;;;;;;;162.25;144.80;;;;;;;3.49;60.08;97993.13;5078029;28;20028;-45
2023/03/06 06:59:05;;;;;;;86.13;55.05;;;;;;;3.57;59.32;97982.72;5113291;28;20031;-44
2023/03/06 07:01:32;;;;;;;70.25;41.17;;;;;;;3.61;57.02;97985.78;5112988;28;20102;-45
2023/03/06 07:04:00;;;;;;;66.80;40.65;;;;;;;3.52;56.47;97981.59;5112971;28;20024;-45
2023/03/06 07:06:26;;;;;;;69.13;46.33;;;;;;;3.42;56.67;97987.03;5112721;28;20032;-45
2023/03/06 07:08:53;;;;;;;180.38;159.82;;;;;;;3.40;57.45;97992.41;5112899;28;20045;-44
2023/03/06 07:11:21;;;;;;;141.75;126.75;;;;;;;3.42;58.26;97983.63;5094498;28;20031;-45
2023/03/06 07:13:48;;;;;;;134.85;109.68;;;;;;;3.29;58.95;97995.38;5112737;28;20038;-45
2023/03/06 07:16:18;;;;;;;224.75;202.85;;;;;;;3.48;59.65;97998.50;5094675;28;20053;-45
2023/03/06 07:18:45;;;;;;;87.63;71.38;;;;;;;4.39;58.50;97983.81;5112699;28;20045;-45
2023/03/06 07:21:12;;;;;;;90.97;78.32;;;;;;;4.65;55.80;97993.78;5112664;28;20098;-45
2023/03/06 07:23:40;;;;;;;99.18;87.47;;;;;;;4.66;56.71;97987.56;5112557;28;20054;-45
2023/03/06 07:26:07;;;;;;;54.05;40.15;;;;;;;5.10;55.74;97993.72;5112473;28;20107;-46
2023/03/06 07:28:34;;;;;;;62.72;47.72;;;;;;;5.27;54.90;97996.91;5094391;28;20459;-45
2023/03/06 07:31:10;;;;;;;68.65;49.25;;;;;;;5.63;54.30;97991.69;5112005;28;20134;-45
2023/03/06 07:33:38;;;;;;;67.55;41.33;;;;;;;6.47;54.79;97993.59;5112517;28;20027;-45
2023/03/06 07:36:09;;;;;;;57.92;37.45;;;;;;;7.46;51.79;97992.41;5112472;28;20027;-44
2023/03/06 07:38:36;;;;;;;55.65;32.42;;;;;;;8.05;48.42;97993.50;5112395;28;20140;-47
2023/03/06 07:41:04;;;;;;;65.70;41.72;;;;;;;8.60;48.17;97995.91;5112399;28;20027;-47
2023/03/06 07:43:31;;;;;;;55.47;36.80;;;;;;;8.95;46.95;97995.59;5112131;28;20523;-47
2023/03/06 07:45:59;;;;;;;61.47;32.40;;;;;;;9.13;45.92;97993.09;5111558;28;20521;-47
2023/03/06 07:48:26;;;;;;;52.67;29.30;;;;;;;9.30;45.53;97995.28;5112348;28;20102;-47
2023/03/06 07:51:22;;;;;;;50.90;25.42;;;;;;;9.39;45.25;97983.53;5112287;28;20077;-47
2023/03/06 07:53:49;;;;;;;50.53;29.80;;;;;;;9.20;43.65;97987.88;5112114;28;20059;-47
2023/03/06 07:56:20;;;;;;;54.63;32.90;;;;;;;9.21;43.77;97989.44;5112210;28;20106;-47
2023/03/06 07:58:47;;;;;;;53.10;35.08;;;;;;;9.08;44.00;97989.53;5112183;28;20043;-47
2023/03/06 08:01:18;;;;;;;52.20;30.30;;;;;;;9.25;44.07;97985.41;5112364;28;20023;-47
2023/03/06 08:03:48;;;;;;;52.65;29.63;;;;;;;9.49;44.13;97998.78;5112259;28;20030;-47
2023/03/06 08:06:22;;;;;;;68.03;43.58;;;;;;;9.65;43.88;97987.00;5111990;28;20111;-47
2023/03/06 08:09:08;;;;;;;45.58;25.65;;;;;;;9.59;43.03;97981.59;5093916;28;20463;-47
2023/03/06 08:11:53;;;;;;;40.10;24.30;;;;;;;9.68;42.73;97992.63;5093775;28;20080;-47
2023/03/06 08:14:19;;;;;;;50.22;27.15;;;;;;;9.56;42.44;97994.34;5112102;28;20103;-48
2023/03/06 08:16:47;;;;;;;47.88;28.60;;;;;;;9.51;43.28;97984.47;5112045;28;20107;-47
2023/03/06 08:19:34;;;;;;;49.53;26.38;;;;;;;9.60;43.33;97987.66;5089103;28;20075;-47
2023/03/06 08:22:12;;;;;;;43.58;25.42;;;;;;;10.06;43.82;97991.78;5093552;28;20040;-49
2023/03/06 08:24:59;;;;;;;45.75;26.65;;;;;;;10.20;43.61;97988.00;5111881;28;20015;-47
2023/03/06 08:27:39;;;;;;;46.40;27.83;;;;;;;9.93;43.56;97990.03;5093467;28;20028;-48
2023/03/06 08:30:09;;;;;;;80.20;49.13;;;;;;;9.64;44.74;97993.25;5107712;28;20063;-48
2023/03/06 08:32:37;;;;;;;50.95;30.50;;;;;;;9.64;44.95;97994.06;5093686;28;20113;-48
2023/03/06 08:35:05;;;;;;;51.25;29.45;;;;;;;10.14;44.67;97988.06;5111914;28;20108;-47
2023/03/06 08:37:32;;;;;;;61.30;37.88;;;;;;;11.25;42.50;97983.72;5111978;28;20408;-47
2023/03/06 08:40:02;;;;;;;79.22;44.20;;;;;;;11.41;42.13;97987.56;5111836;28;20016;-48
2023/03/06 08:42:30;;;;;;;543.65;486.55;;;;;;;11.55;41.83;97978.44;5093457;28;20031;-46
2023/03/06 08:44:57;;;;;;;122.75;88.45;;;;;;;11.92;41.60;97990.69;5111822;28;20020;-46
2023/03/06 08:47:24;;;;;;;109.05;89.53;;;;;;;12.87;40.82;97976.47;5111550;28;20040;-46
2023/03/06 08:49:52;;;;;;;73.50;50.72;;;;;;;13.49;39.43;97975.06;5093311;28;20049;-46
2023/03/06 08:52:18;;;;;;;63.80;41.70;;;;;;;14.75;37.40;97976.50;5111571;28;20409;-46
2023/03/06 08:54:46;;;;;;;56.08;36.22;;;;;;;16.21;36.43;97963.38;5111690;28;20019;-46
2023/03/06 08:57:15;;;;;;;57.88;38.67;;;;;;;17.07;34.44;97964.13;5114071;28;20423;-46
2023/03/06 08:59:42;;;;;;;36.97;25.67;;;;;;;17.83;32.66;97966.16;5115410;28;20019;-47
2023/03/06 09:02:13;;;;;;;41.30;27.75;;;;;;;18.58;31.48;97959.44;5115208;28;20077;-46
2023/03/06 09:04:41;;;;;;;33.75;22.63;;;;;;;19.17;29.98;97961.34;5097080;28;20554;-44
2023/03/06 09:07:08;;;;;;;36.83;25.05;;;;;;;20.01;29.30;97961.34;5115130;28;20053;-44
2023/03/06 09:09:56;;;;;;;35.75;22.58;;;;;;;20.71;27.80;97966.28;5115161;28;20431;-44
2023/03/06 09:12:25;;;;;;;34.28;22.90;;;;;;;21.27;27.39;97959.44;5096764;28;20051;-44
2023/03/06 09:14:57;;;;;;;32.35;22.48;;;;;;;20.80;26.88;97976.31;5096777;28;20576;-43
2023/03/06 09:17:23;;;;;;;30.75;21.35;;;;;;;20.31;27.00;97973.59;5115034;28;20028;-44
2023/03/06 09:20:09;;;;;;;28.60;18.95;;;;;;;20.05;27.30;97977.56;5079874;28;20396;-44
2023/03/06 09:22:48;;;;;;;49.97;26.58;;;;;;;19.88;27.17;97975.28;5096680;28;20029;-44
2023/03/06 09:25:38;;;;;;;30.65;22.80;;;;;;;19.69;26.93;97977.81;5096516;28;20019;-44
2023/03/06 09:28:21;;;;;;;41.85;27.98;;;;;;;19.45;27.65;97978.47;5114859;28;20035;-44
2023/03/06 09:30:54;;;;;;;30.17;20.25;;;;;;;18.60;28.71;97978.56;5093090;28;20048;-44
2023/03/06 09:33:23;;;;;;;27.50;19.80;;;;;;;19.25;28.03;97978.59;5093053;28;20020;-43
2023/03/06 09:35:55;;;;;;;33.78;18.92;;;;;;;20.34;27.08;97981.03;5094281;28;20038;-44
2023/03/06 09:38:25;;;;;;;33.95;17.95;;;;;;;20.40;26.30;97978.31;5092854;28;20042;-44
2023/03/06 09:41:01;;;;;;;20.73;17.05;;;;;;;20.31;26.69;97970.91;5094176;28;20077;-44
2023/03/06 09:43:43;;;;;;;29.33;17.63;;;;;;;21.25;25.87;97961.63;5094212;28;20048;-44
2023/03/06 09:46:23;;;;;;;30.45;16.85;;;;;;;22.18;24.60;97955.66;5094122;28;20032;-44
2023/03/06 09:49:20;;;;;;;26.60;18.33;;;;;;;22.62;24.25;97953.56;5094083;28;20035;-44
2023/03/06 09:52:15;;;;;;;24.35;17.42;;;;;;;23.20;24.11;97947.59;5092623;28;20036;-44
2023/03/06 09:55:15;;;;;;;23.77;17.58;;;;;;;23.79;22.82;97960.22;5094079;28;20031;-44
2023/03/06 09:57:48;;;;;;;34.03;22.58;;;;;;;23.76;22.91;97953.53;5093789;28;20032;-45
2023/03/06 10:00:23;;;;;;;22.52;17.10;;;;;;;23.76;22.53;97955.44;5093756;28;20528;-44
2023/03/06 10:03:15;;;;;;;39.13;21.27;;;;;;;23.83;22.40;97961.97;5093906;28;20108;-44
2023/03/06 10:06:37;;;;;;;31.17;20.27;;;;;;;23.72;22.69;97956.06;5092478;28;20028;-45
2023/03/06 10:09:26;;;;;;;28.05;18.88;;;;;;;23.29;22.44;97961.84;5057752;28;20074;-45
2023/03/06 10:12:00;;;;;;;24.25;17.00;;;;;;;23.45;22.34;97956.94;5093719;28;20509;-45
2023/03/06 10:14:44;;;;;;;30.52;17.85;;;;;;;23.88;22.13;97953.78;5093764;28;20024;-45
2023/03/06 10:17:39;;;;;;;29.58;22.13;;;;;;;24.38;21.95;97955.50;5092289;28;20488;-46
2023/03/06 10:20:43;;;;;;;34.78;16.80;;;;;;;24.18;21.62;97958.72;5092165;28;20051;-45
2023/03/06 10:23:36;;;;;;;32.72;20.38;;;;;;;23.47;22.28;97952.06;5093486;28;20489;-45
2023/03/06 10:26:26;;;;;;;25.75;21.95;;;;;;;23.40;22.73;97953.56;5091947;28;20047;-45
2023/03/06 10:29:13;;;;;;;20.65;17.05;;;;;;;23.61;21.95;97960.06;5093106;28;20115;-45
2023/03/06 10:31:43;;;;;;;23.48;14.73;;;;;;;24.00;21.28;97957.81;5105728;28;20042;-45
2023/03/06 10:34:31;;;;;;;33.97;25.58;;;;;;;24.39;21.03;97951.72;5095169;28;20600;-45
2023/03/06 10:37:21;;;;;;;28.55;17.35;;;;;;;24.82;20.74;97950.31;5113534;28;20042;-47
2023/03/06 10:41:04;;;;;;;32.92;16.10;;;;;;;25.39;20.74;97950.25;5110680;28;20073;-45
2023/03/06 10:43:33;;;;;;;24.65;16.85;;;;;;;26.03;20.14;97952.28;5113276;28;20019;-45
2023/03/06 10:46:01;;;;;;;27.67;17.08;;;;;;;26.25;19.41;97945.13;5113210;28;20020;-44
2023/03/06 10:48:32;;;;;;;24.33;19.25;;;;;;;26.08;19.09;97946.75;5094916;28;20408;-45
2023/03/06 10:51:21;;;;;;;24.38;15.13;;;;;;;26.08;19.38;97948.66;5113171;28;20027;-46
2023/03/06 10:53:57;;;;;;;23.23;15.88;;;;;;;26.22;18.97;97943.06;5113201;28;20062;-45
2023/03/06 10:56:39;;;;;;;21.45;15.77;;;;;;;26.18;19.36;97936.75;5112985;28;20138;-46
2023/03/06 10:59:12;;;;;;;21.25;14.88;;;;;;;26.25;18.90;97937.81;5095017;28;20500;-46
2023/03/06 11:01:43;;;;;;;23.70;17.95;;;;;;;26.36;19.17;97935.59;5094685;28;20429;-45
2023/03/06 11:04:33;;;;;;;27.15;18.33;;;;;;;26.28;19.16;97929.13;5094686;28;20408;-45
2023/03/06 11:07:33;;;;;;;18.42;13.52;;;;;;;26.66;18.97;97932.94;5112903;28;20126;-45
2023/03/06 11:10:22;;;;;;;18.48;13.90;;;;;;;27.04;18.25;97929.38;5094825;28;20062;-46
2023/03/06 11:13:06;;;;;;;22.20;14.07;;;;;;;27.00;18.25;97928.47;5112748;28;20032;-46
2023/03/06 11:16:06;;;;;;;21.02;16.08;;;;;;;27.51;17.52;97929.22;5112454;28;20031;-46
2023/03/06 11:19:04;;;;;;;22.70;13.40;;;;;;;27.86;17.14;97934.28;5094477;28;20032;-46
2023/03/06 11:22:08;;;;;;;23.38;13.30;;;;;;;27.92;17.17;97930.28;5112078;28;20031;-45
2023/03/06 11:25:00;;;;;;;30.95;16.70;;;;;;;27.87;17.18;97925.91;5112578;28;20024;-45
2023/03/06 11:27:52;;;;;;;21.20;14.65;;;;;;;28.05;16.93;97925.69;5094176;28;20080;-46
2023/03/06 11:30:58;;;;;;;20.15;11.65;;;;;;;27.87;17.20;97920.50;5092817;28;20028;-46
2023/03/06 11:33:27;;;;;;;16.70;13.32;;;;;;;27.74;17.09;97921.53;5112041;28;20088;-46
2023/03/06 11:36:35;;;;;;;19.42;16.85;;;;;;;27.49;17.04;97918.75;5112423;28;20027;-45
2023/03/06 11:39:13;;;;;;;20.02;12.10;;;;;;;26.92;17.38;97911.25;5094113;28;20068;-45
2023/03/06 11:42:05;;;;;;;28.65;12.70;;;;;;;26.49;18.08;97915.72;5112326;28;20497;-45
2023/03/06 11:44:52;;;;;;;24.10;11.80;;;;;;;26.40;17.59;97909.63;5112387;28;20497;-45
2023/03/06 11:47:31;;;;;;;17.30;12.15;;;;;;;26.45;17.56;97914.03;5112291;28;20489;-45
2023/03/06 11:50:21;;;;;;;14.77;11.52;;;;;;;26.59;17.75;97900.38;5093928;28;20032;-45
2023/03/06 11:53:13;;;;;;;18.42;12.70;;;;;;;26.34;18.22;97897.47;5093617;28;20024;-46
2023/03/06 11:56:21;;;;;;;17.20;11.82;;;;;;;25.54;18.07;97897.19;5093811;28;20024;-45